Time;durP1;ratioP1;P1;durP2;ratioP2;P2;SDS_P1;SDS_P2;PMS_P1;PMS_P2;Temp;Humidity;BMP_temperature;BMP_pressure;BME280_temperature;BME280_humidity;BME280_pressure;Samples;Min_cycle;Max_cycle;Signal;HPM_P1;HPM_P2
2022/03/06 00:01:43;;;;;;;8.90;8.00;;;1.10;18.90;;;1.06;57.56;102015.09;5075538;28;20620;-67
2022/03/06 00:04:12;;;;;;;14.98;9.80;;;1.10;18.40;;;0.90;57.20;102019.00;5079331;28;20259;-67
2022/03/06 00:06:41;;;;;;;12.38;8.80;;;1.10;18.20;;;0.87;57.56;102015.59;5085309;28;20177;-66
2022/03/06 00:09:10;;;;;;;14.23;11.95;;;1.10;18.40;;;0.97;57.80;102021.09;5085323;28;20188;-67
2022/03/06 00:11:39;;;;;;;10.02;9.13;;;1.10;18.50;;;0.90;57.70;102019.84;5105153;22;20233;-66
2022/03/06 00:14:08;;;;;;;46.95;25.33;;;1.00;18.30;;;0.90;57.95;102019.00;5055366;28;20215;-67
2022/03/06 00:16:37;;;;;;;50.20;24.73;;;1.00;18.80;;;0.86;57.86;102021.91;5056048;28;20605;-66
2022/03/06 00:19:08;;;;;;;20.75;16.35;;;1.00;18.80;;;0.93;57.73;102022.28;5055540;28;20227;-66
2022/03/06 00:21:37;;;;;;;25.80;15.25;;;1.00;18.70;;;0.82;58.21;102019.56;5055546;28;20208;-67
2022/03/06 00:24:07;;;;;;;17.17;9.88;;;1.00;18.90;;;0.88;57.80;102021.75;5055273;28;20181;-67
2022/03/06 00:26:37;;;;;;;19.77;9.70;;;1.00;18.90;;;0.87;58.05;102015.59;5055280;28;20177;-67
2022/03/06 00:29:06;;;;;;;13.65;10.55;;;1.00;19.00;;;0.77;58.30;102019.91;5055607;28;20681;-67
2022/03/06 00:31:35;;;;;;;11.85;10.18;;;0.90;18.80;;;0.91;57.88;102026.03;5054992;28;20236;-66
2022/03/06 00:34:03;;;;;;;14.68;10.35;;;1.00;19.20;;;0.88;58.44;102017.28;5054906;28;20169;-66
2022/03/06 00:36:34;;;;;;;12.90;9.63;;;1.00;19.20;;;0.93;57.99;102019.63;5055140;28;20184;-66
2022/03/06 00:39:04;;;;;;;15.82;11.50;;;1.00;19.00;;;0.83;58.25;102018.59;5054970;28;20223;-67
2022/03/06 00:41:33;;;;;;;10.85;9.75;;;0.90;18.80;;;0.81;57.92;102015.19;5054555;28;20219;-66
2022/03/06 00:44:03;;;;;;;34.60;21.30;;;0.90;18.70;;;0.83;58.08;102023.91;5053823;28;20204;-66
2022/03/06 00:46:32;;;;;;;17.40;12.50;;;1.00;19.20;;;1.06;58.33;102022.25;5055051;28;20231;-66
2022/03/06 00:49:01;;;;;;;12.30;10.98;;;1.10;19.40;;;1.10;57.16;102021.91;5054800;28;20192;-66
2022/03/06 00:51:30;;;;;;;13.23;9.80;;;1.10;18.70;;;1.09;58.50;102025.53;5054774;28;20196;-67
2022/03/06 00:54:01;;;;;;;13.73;10.60;;;1.20;19.30;;;1.02;57.73;102024.25;5054641;28;20734;-67
2022/03/06 00:56:29;;;;;;;12.95;11.65;;;1.20;18.90;;;1.07;57.73;102022.09;5054258;28;20173;-68
2022/03/06 00:58:58;;;;;;;17.80;13.60;;;1.20;18.60;;;1.03;57.50;102020.63;5054331;28;20193;-67
2022/03/06 01:01:28;;;;;;;12.55;11.23;;;1.20;18.60;;;0.83;57.71;102018.59;5054636;28;20646;-67
2022/03/06 01:03:57;;;;;;;13.05;11.00;;;1.00;17.90;;;0.82;58.16;102023.06;5054621;28;20176;-67
2022/03/06 01:06:26;;;;;;;11.25;9.88;;;1.00;18.90;;;0.85;58.58;102025.50;5054687;28;20177;-66
2022/03/06 01:08:55;;;;;;;13.80;11.02;;;1.00;19.40;;;1.01;58.21;102024.41;5054599;28;20199;-66
2022/03/06 01:11:26;;;;;;;14.65;12.63;;;1.00;19.40;;;0.95;58.48;102028.34;5055365;28;20208;-66
2022/03/06 01:13:55;;;;;;;13.90;10.40;;;1.00;19.40;;;0.99;57.94;102020.97;5054617;28;20183;-67
2022/03/06 01:16:25;;;;;;;12.60;11.30;;;1.10;19.30;;;1.02;57.79;102026.06;5054059;28;20196;-67
2022/03/06 01:18:54;;;;;;;13.00;10.93;;;1.10;18.80;;;1.08;57.19;102025.63;5054297;28;20630;-66
2022/03/06 01:21:23;;;;;;;12.50;10.95;;;1.20;18.40;;;1.12;57.97;102025.28;5053883;28;20227;-67
2022/03/06 01:23:52;;;;;;;11.75;10.60;;;1.20;18.80;;;1.12;57.76;102030.63;5054418;28;20208;-66
2022/03/06 01:26:21;;;;;;;10.98;9.90;;;1.20;18.30;;;1.05;57.63;102026.72;5054126;28;20560;-67
2022/03/06 01:28:51;;;;;;;13.93;10.70;;;1.20;18.40;;;1.03;57.37;102019.78;5054024;28;20185;-66
2022/03/06 01:31:20;;;;;;;16.20;11.20;;;1.20;18.20;;;0.92;56.94;102017.09;5054032;28;20207;-66
2022/03/06 01:33:49;;;;;;;12.02;10.77;;;1.10;17.90;;;0.87;58.16;102020.91;5053762;28;20280;-68
2022/03/06 01:36:18;;;;;;;13.45;11.57;;;1.10;18.40;;;0.89;58.26;102018.13;5054212;28;20219;-67
2022/03/06 01:38:47;;;;;;;13.13;11.73;;;1.00;18.90;;;1.09;57.50;102014.88;5054529;28;20176;-66
2022/03/06 01:41:17;;;;;;;12.48;11.25;;;1.20;18.90;;;0.95;57.96;102028.34;5053706;28;20200;-67
2022/03/06 01:43:46;;;;;;;11.48;10.23;;;1.10;18.50;;;0.81;58.79;102020.53;5054129;28;20316;-66
2022/03/06 01:46:16;;;;;;;18.73;12.80;;;1.00;19.40;;;0.83;59.13;102023.91;5054162;28;20193;-66
2022/03/06 01:48:46;;;;;;;13.45;10.30;;;0.90;19.80;;;0.82;58.24;102022.22;5053988;28;20223;-66
2022/03/06 01:51:15;;;;;;;18.90;10.75;;;0.90;19.20;;;0.72;58.07;102026.53;5054328;28;20689;-66
2022/03/06 01:53:44;;;;;;;12.77;11.10;;;0.90;19.10;;;0.70;58.69;102023.09;5054197;28;20181;-66
2022/03/06 01:56:14;;;;;;;16.77;10.77;;;0.80;19.50;;;0.78;58.20;102026.06;5052883;28;20221;-67
2022/03/06 01:58:43;;;;;;;14.80;9.52;;;0.90;19.70;;;0.77;58.18;102021.72;5053996;28;20637;-65
2022/03/06 02:01:13;;;;;;;13.10;10.98;;;0.90;19.20;;;0.67;58.45;102023.34;5053591;28;20223;-67
2022/03/06 02:03:50;;;;;;;14.80;10.57;;;0.80;19.30;;;0.74;58.69;102021.91;5053525;28;20254;-67
2022/03/06 02:06:19;;;;;;;15.57;10.55;;;0.80;19.60;;;0.73;58.66;102022.88;5053556;28;20268;-67
2022/03/06 02:08:48;;;;;;;10.80;9.18;;;0.80;19.60;;;0.69;58.33;102021.41;5053055;28;20661;-67
2022/03/06 02:11:17;;;;;;;11.40;10.18;;;0.80;19.30;;;0.64;58.40;102013.75;5053139;28;20220;-66
2022/03/06 02:13:46;;;;;;;15.88;11.50;;;0.80;19.30;;;0.62;58.68;102009.50;5053106;28;20188;-66
2022/03/06 02:16:15;;;;;;;10.55;9.35;;;0.80;19.50;;;0.59;58.24;102004.38;5053568;28;20653;-67
2022/03/06 02:18:44;;;;;;;11.40;10.20;;;0.70;19.40;;;0.48;59.23;102004.31;5053230;28;20239;-66
2022/03/06 02:21:15;;;;;;;12.90;9.88;;;0.60;19.80;;;0.64;58.67;102002.22;5052926;28;20212;-66
2022/03/06 02:23:47;;;;;;;11.55;8.75;;;0.70;19.80;;;0.63;58.66;102008.56;5053211;28;20173;-66
2022/03/06 02:26:16;;;;;;;11.45;9.80;;;0.70;20.20;;;0.65;58.85;102001.28;5055342;28;20287;-67
2022/03/06 02:28:45;;;;;;;13.55;8.43;;;0.70;20.00;;;0.81;58.46;101999.22;5059319;28;20169;-66
2022/03/06 02:31:15;;;;;;;13.48;9.30;;;0.80;20.30;;;0.71;58.60;102000.84;5059627;28;20222;-66
2022/03/06 02:33:44;;;;;;;11.90;9.45;;;0.80;19.40;;;0.60;58.50;102000.75;5053432;28;20695;-66
2022/03/06 02:36:14;;;;;;;15.90;8.40;;;0.70;19.60;;;0.66;58.54;101990.53;5052886;28;20632;-66
2022/03/06 02:38:43;;;;;;;12.27;9.23;;;0.70;19.60;;;0.68;58.26;101991.25;5052826;28;20185;-67
2022/03/06 02:41:12;;;;;;;12.35;9.90;;;0.80;19.20;;;0.67;57.94;101986.03;5051796;28;20689;-67
2022/03/06 02:43:41;;;;;;;14.13;8.20;;;0.80;19.10;;;0.64;58.03;101991.56;5052769;28;20192;-67
2022/03/06 02:46:10;;;;;;;10.80;8.73;;;0.70;18.70;;;0.67;57.83;101986.03;5051500;28;20227;-66
2022/03/06 02:48:39;;;;;;;11.95;8.75;;;0.70;18.60;;;0.58;58.01;101989.38;5053103;28;20187;-66
2022/03/06 02:51:08;;;;;;;15.65;10.77;;;0.70;18.50;;;0.56;58.05;101991.28;5053231;28;20747;-65
2022/03/06 02:53:39;;;;;;;12.45;9.90;;;0.70;18.70;;;0.54;58.44;101980.75;5053347;28;20219;-66
2022/03/06 02:56:08;;;;;;;9.50;8.55;;;0.70;19.30;;;0.68;57.60;101988.56;5052892;28;20207;-66
2022/03/06 02:58:37;;;;;;;11.10;8.00;;;0.70;19.10;;;0.64;57.76;101980.91;5052801;28;20703;-67
2022/03/06 03:01:06;;;;;;;11.48;8.65;;;0.70;18.70;;;0.49;57.84;101979.38;5052613;28;20251;-66
2022/03/06 03:03:43;;;;;;;13.95;8.70;;;0.60;18.60;;;0.49;57.93;101979.38;5052636;28;20238;-66
2022/03/06 03:06:12;;;;;;;17.38;8.65;;;0.60;19.00;;;0.70;57.63;101985.81;5052973;28;20549;-65
2022/03/06 03:08:42;;;;;;;9.77;7.18;;;0.70;18.60;;;0.61;58.20;101987.34;5053550;28;20205;-66
2022/03/06 03:11:11;;;;;;;19.83;11.70;;;0.70;18.70;;;0.70;57.69;101992.00;5053301;28;20588;-65
2022/03/06 03:13:40;;;;;;;10.55;7.18;;;0.80;18.60;;;0.74;57.68;101992.63;5053560;28;20167;-66
2022/03/06 03:16:09;;;;;;;11.23;8.02;;;0.80;18.50;;;0.68;57.34;101987.72;5053367;28;20646;-65
2022/03/06 03:18:38;;;;;;;10.32;7.18;;;0.80;18.00;;;0.60;57.30;101985.63;5052677;28;20234;-66
2022/03/06 03:21:07;;;;;;;10.15;8.05;;;0.70;18.00;;;0.64;57.40;101972.94;5054417;28;20561;-67
2022/03/06 03:23:36;;;;;;;7.85;6.47;;;0.80;18.00;;;0.64;57.46;101986.25;5056728;28;20238;-66
2022/03/06 03:26:06;;;;;;;12.70;6.78;;;0.70;17.80;;;0.54;57.59;101982.56;5056716;28;20184;-65
2022/03/06 03:28:36;;;;;;;9.82;7.72;;;0.70;17.90;;;0.63;57.31;101984.56;5056337;28;20200;-67
2022/03/06 03:31:05;;;;;;;10.10;6.90;;;0.70;17.90;;;0.71;57.48;101987.53;5056449;28;20205;-67
2022/03/06 03:33:34;;;;;;;17.38;6.90;;;0.80;18.00;;;0.72;56.64;101994.56;5056651;28;20545;-67
2022/03/06 03:36:03;;;;;;;11.50;7.93;;;0.80;17.40;;;0.65;56.74;101988.81;5056896;28;20200;-65
2022/03/06 03:38:33;;;;;;;8.40;6.40;;;0.80;17.50;;;0.47;57.75;101989.31;5056328;28;20573;-66
2022/03/06 03:41:06;;;;;;;8.55;5.68;;;0.60;17.50;;;0.54;57.21;101993.22;5057101;28;20231;-66
2022/03/06 03:43:36;;;;;;;12.77;7.68;;;0.60;17.80;;;0.56;57.23;101993.97;5056509;28;20673;-66
2022/03/06 03:46:06;;;;;;;7.38;5.03;;;0.60;17.70;;;0.59;57.44;101997.25;5056695;28;20185;-66
2022/03/06 03:48:36;;;;;;;17.35;8.18;;;0.70;17.90;;;0.58;57.60;102002.69;5056888;28;20223;-65
2022/03/06 03:51:05;;;;;;;10.10;7.15;;;0.70;17.70;;;0.57;57.23;102001.00;5057154;28;20207;-66
2022/03/06 03:53:34;;;;;;;10.65;7.13;;;0.70;17.40;;;0.59;57.08;101996.38;5056324;28;20677;-67
2022/03/06 03:56:04;;;;;;;11.40;6.95;;;0.70;17.10;;;0.56;56.67;102000.13;5056017;28;20184;-66
2022/03/06 03:58:35;;;;;;;10.13;6.60;;;0.70;16.90;;;0.59;56.44;101997.25;5055884;28;20195;-66
2022/03/06 04:01:05;;;;;;;9.50;7.32;;;0.70;16.60;;;0.47;56.99;102005.28;5056335;28;20243;-65
2022/03/06 04:03:34;;;;;;;8.93;7.55;;;0.60;16.80;;;0.52;56.67;102008.47;5055827;28;20270;-65
2022/03/06 04:06:05;;;;;;;7.68;6.88;;;0.60;17.00;;;0.63;56.76;102011.22;5056178;28;20267;-66
2022/03/06 04:08:34;;;;;;;12.15;8.15;;;0.70;17.00;;;0.54;56.70;102002.06;5056296;28;20222;-66
2022/03/06 04:11:04;;;;;;;7.90;6.63;;;0.70;16.90;;;0.60;56.74;102000.75;5055759;28;20216;-65
2022/03/06 04:13:35;;;;;;;12.73;8.00;;;0.70;16.90;;;0.59;56.69;102002.56;5055883;28;20239;-67
2022/03/06 04:16:04;;;;;;;7.75;5.72;;;0.70;16.70;;;0.53;56.33;102004.84;5055939;28;20206;-66
2022/03/06 04:18:33;;;;;;;9.90;6.78;;;0.70;16.30;;;0.60;55.28;102000.75;5055603;28;20185;-66
2022/03/06 04:21:02;;;;;;;10.88;6.63;;;0.70;15.50;;;0.57;55.08;101995.66;5056115;28;20575;-65
2022/03/06 04:23:31;;;;;;;10.13;6.93;;;0.70;14.70;;;0.53;54.53;102000.38;5055853;28;20193;-66
2022/03/06 04:26:00;;;;;;;9.55;7.63;;;0.70;14.20;;;0.61;53.57;101994.47;5055849;28;20604;-66
2022/03/06 04:28:30;;;;;;;9.23;7.72;;;0.70;13.20;;;0.66;52.50;101995.00;5055949;28;20193;-66
2022/03/06 04:31:01;;;;;;;10.75;7.95;;;0.70;11.80;;;0.66;53.00;101995.00;5055822;28;20215;-66
2022/03/06 04:33:29;;;;;;;10.85;7.40;;;0.70;12.10;;;0.65;52.98;101995.94;5054734;28;20180;-66
2022/03/06 04:35:58;;;;;;;11.02;8.65;;;0.70;12.30;;;0.65;52.98;101993.28;5055558;28;20188;-67
2022/03/06 04:38:27;;;;;;;9.38;7.70;;;0.70;11.80;;;0.68;52.87;101998.38;5055153;28;20388;-66
2022/03/06 04:40:56;;;;;;;10.30;7.88;;;0.80;12.10;;;0.75;52.90;102004.97;5055196;28;20295;-66
2022/03/06 04:43:25;;;;;;;9.77;8.77;;;0.80;12.50;;;0.74;52.68;102005.94;5055502;28;20212;-67
2022/03/06 04:45:54;;;;;;;16.63;8.40;;;0.90;11.80;;;0.78;52.25;102008.25;5054064;28;20284;-67
2022/03/06 04:48:24;;;;;;;11.23;7.88;;;0.90;11.70;;;0.62;53.44;102005.03;5055227;28;20235;-65
2022/03/06 04:50:53;;;;;;;15.02;8.20;;;0.80;11.80;;;0.74;53.48;102009.44;5054805;28;20224;-66
2022/03/06 04:53:22;;;;;;;14.10;8.30;;;0.80;12.50;;;0.76;53.45;102001.34;5054854;28;20169;-66
2022/03/06 04:55:51;;;;;;;10.95;8.85;;;0.90;13.00;;;0.79;53.50;102014.44;5054645;28;20544;-66
2022/03/06 04:58:20;;;;;;;15.25;9.82;;;0.90;12.80;;;0.73;53.03;102009.56;5054783;28;20184;-66
2022/03/06 05:00:49;;;;;;;8.75;7.85;;;0.80;12.00;;;0.59;53.21;102009.72;5055182;28;20704;-64
2022/03/06 05:03:18;;;;;;;11.75;8.32;;;0.80;11.90;;;0.64;53.70;102007.56;5054641;28;20244;-67
2022/03/06 05:05:49;;;;;;;10.90;8.65;;;0.80;12.30;;;0.77;53.99;102003.06;5054603;28;20181;-67
2022/03/06 05:08:18;;;;;;;10.25;7.50;;;0.90;12.90;;;0.86;53.25;102005.06;5054526;28;20634;-67
2022/03/06 05:10:47;;;;;;;9.13;7.57;;;0.90;12.20;;;0.87;52.71;101996.91;5054164;28;20227;-67
2022/03/06 05:13:16;;;;;;;9.57;7.85;;;0.90;11.70;;;0.87;52.92;101999.59;5055190;28;20173;-67
2022/03/06 05:15:45;;;;;;;9.68;7.32;;;0.90;11.60;;;0.79;52.36;102001.13;5054410;28;20173;-67
2022/03/06 05:18:14;;;;;;;14.00;7.93;;;0.90;10.90;;;0.81;52.20;102005.41;5054315;28;20185;-66
2022/03/06 05:20:44;;;;;;;10.07;7.75;;;0.90;10.80;;;0.66;52.82;102010.97;5054517;28;20669;-66
2022/03/06 05:23:14;;;;;;;10.27;8.68;;;0.80;11.10;;;0.82;52.79;102011.56;5057802;28;20220;-67
2022/03/06 05:25:43;;;;;;;11.15;8.07;;;0.90;11.50;;;0.78;52.09;102010.06;5056652;28;20371;-67
2022/03/06 05:28:13;;;;;;;14.88;8.90;;;0.90;10.80;;;0.84;52.03;102004.31;5057902;28;20189;-66
2022/03/06 05:30:43;;;;;;;12.98;8.55;;;0.90;10.60;;;0.82;52.39;102006.25;5058231;28;20727;-66
2022/03/06 05:33:12;;;;;;;10.25;8.68;;;0.90;10.80;;;0.77;52.85;102005.72;5057164;28;20238;-66
2022/03/06 05:35:41;;;;;;;10.85;8.00;;;0.90;11.00;;;0.86;52.39;102002.38;5056247;28;20234;-66
2022/03/06 05:38:10;;;;;;;11.48;8.57;;;0.90;11.00;;;0.75;52.12;101999.66;5054555;28;20184;-67
2022/03/06 05:40:40;;;;;;;10.45;7.55;;;0.90;10.70;;;0.60;53.01;101996.28;5053998;28;20220;-66
2022/03/06 05:43:09;;;;;;;10.43;8.88;;;0.80;11.10;;;0.65;53.14;101998.63;5054146;28;20192;-66
2022/03/06 05:45:38;;;;;;;14.23;8.80;;;0.80;11.40;;;0.77;53.04;101997.75;5052687;28;20227;-66
2022/03/06 05:48:07;;;;;;;9.40;8.15;;;0.90;11.60;;;0.83;52.92;101997.25;5053675;28;20184;-66
2022/03/06 05:50:36;;;;;;;10.55;9.55;;;0.90;11.60;;;0.75;52.50;102000.50;5053643;28;20247;-67
2022/03/06 05:53:05;;;;;;;10.30;8.40;;;0.90;11.10;;;0.70;52.64;101997.31;5053656;28;20211;-67
2022/03/06 05:55:34;;;;;;;11.88;9.15;;;0.80;10.80;;;0.81;52.52;102004.53;5053773;28;20567;-66
2022/03/06 05:58:05;;;;;;;17.60;9.70;;;0.90;10.90;;;0.99;52.39;102008.50;5053906;28;20552;-67
2022/03/06 06:00:34;;;;;;;12.55;9.45;;;1.00;11.80;;;0.88;52.29;102005.78;5053424;28;20205;-67
2022/03/06 06:03:03;;;;;;;13.82;8.18;;;1.00;10.40;;;0.75;52.33;102004.97;5053893;28;20272;-68
2022/03/06 06:05:33;;;;;;;11.48;9.55;;;0.90;10.40;;;0.75;53.02;102012.97;5053930;28;20212;-64
2022/03/06 06:08:02;;;;;;;11.57;8.52;;;0.90;11.20;;;0.80;52.67;102010.81;5053201;28;20256;-67
2022/03/06 06:13:27;;;;;;;13.52;9.60;;;0.90;11.10;;;0.82;52.90;102012.41;4973171;28;20704;-69
2022/03/06 06:15:57;;;;;;;10.43;9.32;;;1.00;11.00;;;0.91;52.68;102012.72;4975164;28;20555;-68
2022/03/06 06:18:27;;;;;;;10.05;9.00;;;1.00;11.10;;;1.02;52.62;102008.25;4975153;28;20206;-68
2022/03/06 06:20:56;;;;;;;10.00;8.57;;;1.00;11.30;;;0.84;52.40;102014.97;4975167;28;20210;-69
2022/03/06 06:23:25;;;;;;;12.25;10.85;;;1.00;10.70;;;0.78;53.08;102010.06;4974757;28;20575;-69
2022/03/06 06:25:54;;;;;;;11.85;10.05;;;0.90;10.90;;;0.78;52.84;102015.41;4974999;28;20187;-69
2022/03/06 06:28:23;;;;;;;13.95;9.43;;;0.90;11.10;;;0.84;53.54;102009.63;4975030;28;20230;-68
2022/03/06 06:30:53;;;;;;;13.70;10.10;;;0.90;11.50;;;0.94;52.65;102010.66;4974860;28;20215;-68
2022/03/06 06:33:22;;;;;;;15.13;10.82;;;1.00;11.40;;;1.05;52.05;102010.72;4974427;28;20591;-70
2022/03/06 06:35:52;;;;;;;13.45;10.82;;;1.10;10.90;;;1.06;52.55;102011.59;4974748;28;20191;-70
2022/03/06 06:38:21;;;;;;;15.45;12.07;;;1.20;10.70;;;1.01;52.40;102011.91;4974782;28;20186;-69
2022/03/06 06:40:52;;;;;;;12.23;9.73;;;1.20;10.80;;;1.14;52.20;102009.19;4974597;28;20191;-71
2022/03/06 06:43:22;;;;;;;12.93;11.13;;;1.20;10.80;;;1.15;52.29;102011.75;4955094;29;20518;-70
2022/03/06 06:45:53;;;;;;;12.13;10.98;;;1.20;11.00;;;1.23;52.06;102014.69;4970570;28;20211;-70
2022/03/06 06:48:22;;;;;;;9.75;8.43;;;1.30;10.80;;;1.12;52.25;102011.97;4974501;28;20279;-69
2022/03/06 06:50:52;;;;;;;12.23;9.88;;;1.20;10.40;;;1.11;52.21;102010.28;4976326;28;20194;-69
2022/03/06 06:53:21;;;;;;;11.35;10.18;;;1.20;10.70;;;1.20;52.31;102017.59;4976639;28;20685;-69
2022/03/06 06:55:51;;;;;;;12.27;10.43;;;1.20;10.80;;;1.17;51.60;102012.47;4977401;28;20278;-69
2022/03/06 06:58:20;;;;;;;11.38;9.55;;;1.20;10.30;;;1.00;52.25;102018.22;4977509;28;20215;-70
2022/03/06 07:00:49;;;;;;;11.25;10.25;;;1.20;10.20;;;0.98;52.46;102022.78;4978387;28;20180;-69
2022/03/06 07:03:20;;;;;;;11.25;10.10;;;1.10;10.70;;;1.16;52.16;102024.09;4977433;28;20228;-69
2022/03/06 07:05:49;;;;;;;13.18;10.10;;;1.30;10.50;;;1.14;52.55;102028.69;4975438;28;20191;-69
2022/03/06 07:08:18;;;;;;;10.85;9.85;;;1.20;10.80;;;1.22;52.34;102031.63;4974910;28;20180;-70
2022/03/06 07:10:47;;;;;;;12.40;8.73;;;1.30;10.90;;;1.13;52.21;102029.66;4974829;28;20175;-69
2022/03/06 07:13:17;;;;;;;11.00;9.60;;;1.30;10.70;;;1.02;53.01;102029.59;4974879;28;20314;-70
2022/03/06 07:15:46;;;;;;;12.57;10.75;;;1.10;11.10;;;1.06;53.10;102032.91;4974700;28;20179;-70
2022/03/06 07:18:15;;;;;;;13.68;10.35;;;1.20;11.20;;;1.02;53.03;102034.94;4974983;28;20179;-69
2022/03/06 07:20:46;;;;;;;13.32;11.95;;;1.10;11.30;;;1.07;53.04;102031.91;4975189;28;20258;-70
2022/03/06 07:23:16;;;;;;;17.60;15.82;;;1.10;11.20;;;1.01;53.24;102033.25;4975418;28;20252;-69
2022/03/06 07:25:45;;;;;;;29.65;26.75;;;1.10;11.20;;;1.07;53.05;102032.78;4974679;28;20259;-70
2022/03/06 07:28:14;;;;;;;53.80;47.25;;;1.10;11.30;;;1.00;52.92;102036.88;4975647;28;20204;-71
2022/03/06 07:30:43;;;;;;;24.27;21.35;;;1.10;11.20;;;0.87;53.33;102042.22;4975053;28;20199;-70
2022/03/06 07:33:12;;;;;;;33.92;30.55;;;1.00;11.30;;;0.91;53.22;102039.34;4974988;28;20183;-69
2022/03/06 07:35:41;;;;;;;63.33;54.58;;;1.00;11.50;;;1.02;53.41;102044.72;4974967;28;20192;-70
2022/03/06 07:38:12;;;;;;;23.20;20.95;;;1.10;11.80;;;1.12;53.47;102051.94;4978888;28;20176;-70
2022/03/06 07:40:41;;;;;;;14.48;13.20;;;1.10;11.80;;;1.14;53.35;102044.69;4977588;28;20563;-69
2022/03/06 07:43:10;;;;;;;41.55;34.15;;;1.20;11.90;;;1.31;52.91;102049.63;4974936;28;20202;-70
2022/03/06 07:45:39;;;;;;;14.38;12.43;;;1.30;11.60;;;1.45;52.14;102042.41;4975288;28;20195;-70
2022/03/06 07:48:08;;;;;;;14.98;13.30;;;1.40;11.00;;;1.17;53.06;102044.47;4975186;28;20180;-71
2022/03/06 07:50:37;;;;;;;18.92;17.17;;;1.30;11.30;;;1.23;52.99;102046.69;4974854;28;20187;-68
2022/03/06 07:53:06;;;;;;;15.93;11.10;;;1.30;11.60;;;1.49;52.49;102043.88;4974853;28;20191;-69
2022/03/06 07:55:36;;;;;;;11.85;10.43;;;1.40;11.30;;;1.29;53.13;102048.91;4974944;28;20184;-70
2022/03/06 07:58:05;;;;;;;14.00;12.68;;;1.30;11.40;;;1.13;53.70;102053.66;4975386;28;20175;-68
2022/03/06 08:00:34;;;;;;;12.98;11.00;;;1.30;11.70;;;1.11;53.65;102058.28;4976333;28;20187;-69
2022/03/06 08:03:04;;;;;;;12.75;11.38;;;1.20;11.80;;;1.12;53.59;102054.63;4976161;28;20637;-70
2022/03/06 08:05:33;;;;;;;12.25;10.77;;;1.20;12.10;;;1.28;53.95;102052.53;4976398;28;20227;-69
2022/03/06 08:08:02;;;;;;;15.93;11.82;;;1.20;12.50;;;1.11;54.22;102066.28;4987775;28;20676;-69
2022/03/06 08:10:31;;;;;;;12.65;11.30;;;1.20;12.80;;;1.00;55.10;102066.19;4988136;28;20286;-69
2022/03/06 08:13:01;;;;;;;12.32;10.05;;;1.10;13.00;;;1.07;54.73;102059.44;4993605;28;20234;-68
2022/03/06 08:15:30;;;;;;;11.18;9.85;;;1.10;13.50;;;1.11;55.09;102058.28;4994972;28;20195;-69
2022/03/06 08:17:59;;;;;;;11.18;10.05;;;1.10;13.70;;;1.18;54.87;102066.66;4989386;28;20183;-70
2022/03/06 08:20:28;;;;;;;12.02;10.70;;;1.20;13.70;;;1.20;55.17;102054.06;4992222;28;20215;-70
2022/03/06 08:22:57;;;;;;;11.05;9.90;;;1.20;14.00;;;1.31;54.75;102068.28;4994607;28;20211;-68
2022/03/06 08:25:26;;;;;;;15.07;9.82;;;1.40;13.70;;;1.42;54.58;102063.97;4996015;28;20211;-70
2022/03/06 08:27:55;;;;;;;11.30;10.10;;;1.40;13.90;;;1.19;54.88;102063.03;4990139;28;20179;-69
2022/03/06 08:30:26;;;;;;;10.23;9.30;;;1.30;13.80;;;1.28;55.10;102057.00;4988682;28;20188;-69
2022/03/06 08:32:55;;;;;;;15.50;9.13;;;1.30;14.20;;;1.14;55.37;102068.69;4985613;28;20219;-69
2022/03/06 08:35:24;;;;;;;11.50;10.27;;;1.20;14.80;;;1.08;55.94;102071.81;4981326;28;20183;-70
2022/03/06 08:37:53;;;;;;;10.85;9.85;;;1.20;14.80;;;1.18;56.13;102069.31;4959764;28;20207;-70
2022/03/06 08:40:23;;;;;;;10.05;8.50;;;1.20;15.10;;;1.28;55.93;102068.53;4976839;28;20742;-70
2022/03/06 08:42:53;;;;;;;7.95;6.80;;;1.30;15.10;;;1.22;55.76;102074.31;4976577;28;20691;-71
2022/03/06 08:45:26;;;;;;;11.68;8.60;;;1.30;14.90;;;1.44;56.07;102075.38;4961966;28;20211;-69
2022/03/06 08:47:55;;;;;;;10.00;7.70;;;1.40;15.60;;;1.61;55.50;102072.28;4977082;28;20172;-70
2022/03/06 08:50:24;;;;;;;8.15;7.00;;;1.50;15.20;;;1.55;54.81;102078.13;4976943;28;20172;-70
2022/03/06 08:52:53;;;;;;;9.68;7.65;;;1.60;14.40;;;1.48;55.26;102074.19;4976753;28;20613;-68
2022/03/06 08:55:22;;;;;;;9.32;7.35;;;1.50;14.50;;;1.56;55.42;102075.31;4977548;28;20295;-70
2022/03/06 08:57:51;;;;;;;9.70;6.68;;;1.60;14.70;;;1.67;54.86;102079.84;4976986;28;20171;-70
2022/03/06 09:00:20;;;;;;;7.80;7.00;;;1.60;14.50;;;1.61;55.53;102081.16;4977639;28;20195;-70
2022/03/06 09:02:51;;;;;;;8.27;6.47;;;1.70;14.80;;;1.64;55.07;102077.41;4982194;28;20282;-70
2022/03/06 09:05:20;;;;;;;6.95;6.25;;;1.70;14.60;;;1.45;55.46;102077.09;4989994;28;20219;-70
2022/03/06 09:07:49;;;;;;;7.00;6.35;;;1.50;14.30;;;1.34;55.51;102079.72;4992291;28;20176;-69
2022/03/06 09:10:18;;;;;;;8.00;6.55;;;1.50;14.30;;;1.24;55.73;102077.72;4987668;28;20191;-71
2022/03/06 09:12:47;;;;;;;7.38;5.80;;;1.30;14.70;;;1.33;55.73;102080.66;4983284;28;20712;-68
2022/03/06 09:15:17;;;;;;;9.20;5.78;;;1.30;14.70;;;1.44;55.71;102078.06;4976813;28;20195;-69
2022/03/06 09:17:46;;;;;;;11.55;6.55;;;1.40;15.10;;;1.49;55.41;102084.75;4976815;28;20207;-68
2022/03/06 09:20:16;;;;;;;10.77;6.30;;;1.50;15.10;;;1.65;54.73;102081.75;4976438;28;20198;-69
2022/03/06 09:22:46;;;;;;;7.60;6.53;;;1.60;14.70;;;1.63;54.97;102078.38;4976444;28;20259;-70
2022/03/06 09:25:14;;;;;;;8.30;7.47;;;1.60;14.30;;;1.83;54.30;102080.41;4976906;28;20187;-68
2022/03/06 09:27:44;;;;;;;10.13;8.00;;;1.80;14.30;;;1.81;54.04;102081.47;4976834;28;20199;-69
2022/03/06 09:30:14;;;;;;;8.93;7.63;;;1.80;13.70;;;1.75;53.73;102080.97;4983118;28;20222;-69
2022/03/06 09:32:43;;;;;;;7.70;7.03;;;1.70;12.80;;;1.61;54.30;102080.31;4991866;28;20227;-71
2022/03/06 09:35:12;;;;;;;7.80;6.20;;;1.70;13.30;;;1.87;54.19;102081.00;4992192;28;20190;-69
2022/03/06 09:37:45;;;;;;;5.93;5.28;;;1.80;13.80;;;1.91;53.47;102072.63;4990823;28;20189;-70
2022/03/06 09:40:14;;;;;;;7.05;6.35;;;1.90;13.00;;;1.90;53.84;102075.41;4990989;28;20182;-69
2022/03/06 09:42:43;;;;;;;7.20;6.50;;;1.80;13.00;;;2.25;53.34;102080.72;4984479;28;20241;-68
2022/03/06 09:45:16;;;;;;;6.72;6.03;;;2.10;13.30;;;2.33;52.55;102072.94;4975261;28;20198;-70
2022/03/06 09:47:46;;;;;;;12.35;6.55;;;2.20;12.20;;;2.15;52.25;102076.09;4977040;28;20176;-69
2022/03/06 09:50:17;;;;;;;8.60;7.22;;;2.20;11.80;;;1.93;52.53;102092.06;4976306;28;20191;-70
2022/03/06 09:52:47;;;;;;;7.55;6.80;;;2.00;11.30;;;1.98;53.07;102081.03;4976873;28;20299;-68
2022/03/06 09:55:16;;;;;;;8.30;7.45;;;2.00;12.20;;;2.22;52.83;102075.63;4977027;28;20618;-69
2022/03/06 09:57:45;;;;;;;10.98;9.55;;;2.00;12.30;;;2.57;52.42;102087.03;4976814;28;20176;-71
2022/03/06 10:00:16;;;;;;;10.52;9.48;;;2.30;12.40;;;2.56;51.27;102080.88;4976819;28;20179;-70
2022/03/06 10:02:57;;;;;;;7.35;6.45;;;2.40;11.20;;;2.22;52.13;102076.47;4976581;28;20211;-70
2022/03/06 10:05:30;;;;;;;18.23;16.38;;;2.30;10.70;;;2.18;51.16;102083.84;4976337;28;20176;-69
2022/03/06 10:08:21;;;;;;;14.85;13.45;;;2.20;10.20;;;2.05;51.00;102091.13;4976662;28;20186;-69
2022/03/06 10:10:55;;;;;;;10.65;7.40;;;2.10;10.00;;;2.18;51.12;102085.66;4976741;28;20188;-70
2022/03/06 10:13:30;;;;;;;10.95;7.75;;;2.10;10.00;;;2.21;50.17;102085.44;4963544;28;20184;-70
2022/03/06 10:16:12;;;;;;;9.43;7.90;;;2.20;9.10;;;2.29;50.27;102087.50;4979834;28;20191;-69
2022/03/06 10:18:45;;;;;;;9.32;7.50;;;2.20;9.50;;;2.28;49.72;102075.13;4979317;28;20257;-69
2022/03/06 10:21:22;;;;;;;7.30;6.70;;;2.30;8.50;;;2.32;49.14;102077.47;4982718;28;20672;-70
2022/03/06 10:23:55;;;;;;;9.55;7.78;;;2.30;7.80;;;2.29;49.92;102074.16;4980678;28;20207;-69
2022/03/06 10:26:27;;;;;;;7.35;6.50;;;2.30;8.40;;;2.59;49.51;102077.09;4979325;28;20199;-71
2022/03/06 10:28:59;;;;;;;7.47;6.75;;;2.40;8.70;;;2.70;49.35;102071.75;4976304;28;20270;-69
2022/03/06 10:31:31;;;;;;;8.20;7.38;;;2.50;8.30;;;2.32;49.54;102076.59;4974922;28;20214;-69